createdAt,value
2019-05-03T00:01:36.608Z,97559.63
2019-05-03T00:04:07.657Z,97559.63
2019-05-03T00:06:37.387Z,97564.58
2019-05-03T00:09:11.814Z,97563.32
2019-05-03T00:11:42.214Z,97556.27
2019-05-03T00:14:12.456Z,97543.59
2019-05-03T00:16:43.910Z,97543.59
2019-05-03T00:19:13.395Z,97575.56
2019-05-03T00:21:42.732Z,97565.24
2019-05-03T00:24:11.939Z,97568.75
2019-05-03T00:26:42.364Z,97569.00
2019-05-03T00:29:12.725Z,97566.80
2019-05-03T00:31:42.358Z,97566.80
2019-05-03T00:34:15.411Z,97565.61
2019-05-03T00:36:49.071Z,97571.33
2019-05-03T00:39:26.503Z,97571.33
2019-05-03T00:41:56.004Z,97548.66
2019-05-03T00:44:25.443Z,97548.66
2019-05-03T00:46:54.758Z,97584.52
2019-05-03T00:49:26.879Z,97580.11
2019-05-03T00:51:56.288Z,97572.29
2019-05-03T00:54:25.185Z,97586.86
2019-05-03T00:56:54.571Z,97555.31
2019-05-03T00:59:23.966Z,97579.08
2019-05-03T01:01:53.526Z,97578.86
2019-05-03T01:04:22.909Z,97578.86
2019-05-03T01:06:52.687Z,97570.06
2019-05-03T01:09:23.603Z,97558.47
2019-05-03T01:11:52.947Z,97558.47
2019-05-03T01:14:22.675Z,97572.72
2019-05-03T01:16:52.283Z,97582.27
2019-05-03T01:19:22.707Z,97582.27
2019-05-03T01:21:52.228Z,97582.04
2019-05-03T01:24:21.958Z,97581.82
2019-05-03T01:26:52.555Z,97581.82
2019-05-03T01:29:22.779Z,97584.19
2019-05-03T01:31:52.813Z,97579.20
2019-05-03T01:34:22.897Z,97579.20
2019-05-03T01:36:53.234Z,97583.38
2019-05-03T01:39:22.595Z,97583.38
2019-05-03T01:41:52.137Z,97577.92
2019-05-03T01:44:21.995Z,97584.81
2019-05-03T01:46:53.227Z,97576.39
2019-05-03T01:49:29.346Z,97575.08
2019-05-03T01:52:24.026Z,97589.95
2019-05-03T01:54:53.212Z,97586.53
2019-05-03T01:57:22.967Z,97586.53
2019-05-03T01:59:52.324Z,97579.70
2019-05-03T02:02:49.689Z,97583.38
2019-05-03T02:05:42.878Z,97578.36
2019-05-03T02:08:14.102Z,97585.22
2019-05-03T02:10:43.949Z,97585.22
2019-05-03T02:13:13.212Z,97592.77
2019-05-03T02:15:42.524Z,97596.00
2019-05-03T02:18:14.976Z,97598.18
2019-05-03T02:20:43.042Z,97594.80
2019-05-03T02:23:12.605Z,97594.80
2019-05-03T02:25:42.069Z,97599.48
2019-05-03T02:28:12.606Z,97599.48
2019-05-03T02:30:44.259Z,97603.16
2019-05-03T02:33:14.512Z,97605.02
2019-05-03T02:35:43.917Z,97612.03
2019-05-03T02:38:14.315Z,97612.03
2019-05-03T02:40:43.730Z,97612.59
2019-05-03T02:43:19.201Z,97612.59
2019-05-03T02:45:59.460Z,97604.08
2019-05-03T02:48:36.469Z,97602.09
2019-05-03T02:51:09.459Z,97605.95
2019-05-03T02:53:38.842Z,97593.77
2019-05-03T02:56:18.266Z,97606.12
2019-05-03T02:58:40.613Z,97617.42
2019-05-03T03:01:10.102Z,97616.28
2019-05-03T03:03:39.734Z,97618.81
2019-05-03T03:06:09.089Z,97614.12
2019-05-03T03:08:39.259Z,97618.52
2019-05-03T03:11:09.546Z,97617.08
2019-05-03T03:13:39.259Z,97613.95
2019-05-03T03:16:10.243Z,97630.31
2019-05-03T03:18:40.560Z,97630.31
2019-05-03T03:21:16.134Z,97641.05
2019-05-03T03:23:56.425Z,97641.73
2019-05-03T03:26:37.727Z,97645.42
2019-05-03T03:29:05.675Z,97645.42
2019-05-03T03:32:09.635Z,97646.39
2019-05-03T03:34:49.940Z,97644.14
2019-05-03T03:37:15.556Z,97644.14
2019-05-03T03:39:45.921Z,97647.84
2019-05-03T03:42:16.343Z,97647.22
2019-05-03T03:44:45.927Z,97648.80
2019-05-03T03:47:16.982Z,97646.67
2019-05-03T03:49:46.952Z,97656.80
2019-05-03T03:52:16.641Z,97658.48
2019-05-03T03:54:46.093Z,97657.59
2019-05-03T03:57:18.028Z,97666.98
2019-05-03T03:59:47.459Z,97666.02
2019-05-03T04:02:17.041Z,97671.00
2019-05-03T04:04:46.811Z,97669.90
2019-05-03T04:07:16.368Z,97665.70
2019-05-03T04:09:45.976Z,97669.45
2019-05-03T04:12:16.408Z,97674.70
2019-05-03T04:14:56.259Z,97672.66
2019-05-03T04:17:57.037Z,97678.66
2019-05-03T04:20:29.325Z,97686.63
2019-05-03T04:22:58.721Z,97686.63
2019-05-03T04:25:28.141Z,97687.19
2019-05-03T04:27:57.508Z,97687.19
2019-05-03T04:30:27.119Z,97692.25
2019-05-03T04:32:56.815Z,97698.95
2019-05-03T04:35:26.749Z,97694.52
2019-05-03T04:37:56.311Z,97697.04
2019-05-03T04:40:26.308Z,97704.14
2019-05-03T04:42:56.713Z,97685.09
2019-05-03T04:45:27.768Z,97694.48
2019-05-03T04:47:57.060Z,97695.44
2019-05-03T04:50:26.676Z,97702.61
2019-05-03T04:52:56.933Z,97700.73
2019-05-03T04:55:27.092Z,97708.44
2019-05-03T04:57:57.116Z,97706.56
2019-05-03T05:00:26.870Z,97714.96
2019-05-03T05:02:56.123Z,97713.43
2019-05-03T05:05:26.385Z,97713.43
2019-05-03T05:07:56.031Z,97703.05
2019-05-03T05:10:26.421Z,97703.05
2019-05-03T05:12:57.354Z,97696.64
2019-05-03T05:15:26.871Z,97701.78
2019-05-03T05:18:15.945Z,97711.31
2019-05-03T05:21:04.614Z,97707.22
2019-05-03T05:23:35.389Z,97707.98
2019-05-03T05:26:14.501Z,97707.95
2019-05-03T05:28:49.169Z,97717.73
2019-05-03T05:31:18.675Z,97702.56
2019-05-03T05:33:48.447Z,97697.98
2019-05-03T05:36:17.852Z,97702.48
2019-05-03T05:38:47.720Z,97708.27
2019-05-03T05:41:16.976Z,97702.62
2019-05-03T05:43:46.174Z,97703.75
2019-05-03T05:46:16.146Z,97711.20
2019-05-03T05:48:48.998Z,97695.09
2019-05-03T05:51:19.269Z,97701.61
2019-05-03T05:53:48.668Z,97709.61
2019-05-03T05:56:39.362Z,97709.64
2019-05-03T05:59:30.043Z,97716.13
2019-05-03T06:02:06.423Z,97718.66
2019-05-03T06:04:35.832Z,97703.78
2019-05-03T06:07:24.818Z,97713.72
2019-05-03T06:10:18.050Z,97715.84
2019-05-03T06:12:54.435Z,97719.05
2019-05-03T06:15:39.088Z,97719.10
2019-05-03T06:18:14.728Z,97728.29
2019-05-03T06:21:04.516Z,97731.97
2019-05-03T06:23:38.510Z,97740.47
2019-05-03T06:26:27.003Z,97755.55
2019-05-03T06:28:58.133Z,97760.80
2019-05-03T06:31:37.178Z,97752.66
2019-05-03T06:34:06.921Z,97754.77
2019-05-03T06:36:37.169Z,97762.23
2019-05-03T06:39:08.723Z,97759.56
2019-05-03T06:41:38.842Z,97756.52
2019-05-03T06:44:08.452Z,97739.67
2019-05-03T06:46:45.478Z,97779.02
2019-05-03T06:49:16.357Z,97779.02
2019-05-03T06:51:49.814Z,97774.30
2019-05-03T06:54:20.502Z,97776.59
2019-05-03T06:56:50.399Z,97769.02
2019-05-03T06:59:27.917Z,97768.63
2019-05-03T07:02:16.271Z,97776.58
2019-05-03T07:04:48.024Z,97768.33
2019-05-03T07:07:35.411Z,97781.11
2019-05-03T07:10:17.534Z,97765.33
2019-05-03T07:12:59.927Z,97772.77
2019-05-03T07:15:30.009Z,97781.30
2019-05-03T07:18:01.928Z,97767.08
2019-05-03T07:20:56.750Z,97778.42
2019-05-03T07:23:25.954Z,97782.09
2019-05-03T07:25:56.077Z,97798.64
2019-05-03T07:28:27.272Z,97798.64
2019-05-03T07:30:57.248Z,97802.88
2019-05-03T07:33:31.820Z,97809.44
2019-05-03T07:36:01.846Z,97801.01
2019-05-03T07:38:31.901Z,97811.88
2019-05-03T07:41:01.925Z,97813.91
2019-05-03T07:43:31.972Z,97811.51
2019-05-03T07:46:05.454Z,97811.88
2019-05-03T07:48:35.465Z,97821.13
2019-05-03T07:51:05.625Z,97822.53
2019-05-03T07:53:35.911Z,97824.53
2019-05-03T07:56:15.453Z,97828.52
2019-05-03T07:59:02.598Z,97838.11
2019-05-03T08:01:35.538Z,97829.84
2019-05-03T08:04:06.532Z,97826.70
2019-05-03T08:06:37.178Z,97826.52
2019-05-03T08:09:09.185Z,97835.13
2019-05-03T08:11:56.589Z,97831.30
2019-05-03T08:14:31.241Z,97836.08
2019-05-03T08:17:05.106Z,97839.84
2019-05-03T08:19:37.742Z,97803.05
2019-05-03T08:22:10.019Z,97838.33
2019-05-03T08:24:39.649Z,97837.37
2019-05-03T08:27:09.787Z,97854.48
2019-05-03T08:29:43.062Z,97849.55
2019-05-03T08:32:35.284Z,97849.20
2019-05-03T08:35:27.519Z,97848.52
2019-05-03T08:37:59.001Z,97851.44
2019-05-03T08:40:34.998Z,97858.29
2019-05-03T08:43:05.153Z,97858.97
2019-05-03T08:45:35.351Z,97861.80
2019-05-03T08:48:09.061Z,97869.63
2019-05-03T08:50:39.968Z,97863.33
2019-05-03T08:53:15.574Z,97862.65
2019-05-03T08:55:45.128Z,97860.79
2019-05-03T08:58:15.590Z,97862.08
2019-05-03T09:00:46.011Z,97862.91
2019-05-03T09:03:16.015Z,97865.27
2019-05-03T09:05:47.353Z,97856.50
2019-05-03T09:08:20.217Z,97860.00
2019-05-03T09:11:05.083Z,97864.33
2019-05-03T09:13:55.596Z,97845.07
2019-05-03T09:16:25.123Z,97878.22
2019-05-03T09:18:56.928Z,97882.55
2019-05-03T09:21:27.064Z,97878.84
2019-05-03T09:24:02.170Z,97886.95
2019-05-03T09:26:32.194Z,97876.05
2019-05-03T09:29:05.400Z,97879.70
2019-05-03T09:31:35.880Z,97879.06
2019-05-03T09:34:11.687Z,97885.17
2019-05-03T09:36:42.056Z,97895.89
2019-05-03T09:39:12.151Z,97885.77
2019-05-03T09:41:45.153Z,97888.91
2019-05-03T09:44:19.321Z,97893.74
2019-05-03T09:46:49.559Z,97901.05
2019-05-03T09:49:21.009Z,97910.98
2019-05-03T09:51:51.356Z,97902.35
2019-05-03T09:54:29.185Z,97905.68
2019-05-03T09:57:02.516Z,97913.44
2019-05-03T09:59:35.160Z,97906.00
2019-05-03T10:02:05.410Z,97912.81
2019-05-03T10:04:38.294Z,97917.64
2019-05-03T10:07:10.824Z,97919.75
2019-05-03T10:09:55.040Z,97923.50
2019-05-03T10:12:25.763Z,97922.97
2019-05-03T10:14:56.126Z,97918.85
2019-05-03T10:17:47.458Z,97931.14
2019-05-03T10:20:20.053Z,97926.75
2019-05-03T10:22:54.450Z,97922.47
2019-05-03T10:25:24.829Z,97937.11
2019-05-03T10:27:59.762Z,97940.09
2019-05-03T10:30:29.801Z,97945.73
2019-05-03T10:33:21.814Z,97927.61
2019-05-03T10:35:54.609Z,97937.78
2019-05-03T10:39:06.385Z,97947.70
2019-05-03T10:41:42.187Z,97941.26
2019-05-03T10:44:35.949Z,97933.89
2019-05-03T10:47:06.289Z,97946.84
2019-05-03T10:49:38.066Z,97950.83
2019-05-03T10:52:45.390Z,97958.53
2019-05-03T10:55:18.929Z,97956.97
2019-05-03T10:58:26.913Z,97977.41
2019-05-03T11:01:01.940Z,97961.36
2019-05-03T11:03:34.318Z,97972.80
2019-05-03T11:06:07.379Z,97960.38
2019-05-03T11:09:00.597Z,97974.98
2019-05-03T11:11:56.356Z,97963.37
2019-05-03T11:14:28.237Z,97964.84
2019-05-03T11:17:05.712Z,97955.41
2019-05-03T11:19:37.349Z,97953.19
2019-05-03T11:22:25.204Z,97952.13
2019-05-03T11:25:07.069Z,97954.53
2019-05-03T11:27:58.416Z,97957.56
2019-05-03T11:30:56.489Z,97962.66
2019-05-03T11:33:35.343Z,97951.22
2019-05-03T11:36:51.432Z,97956.66
2019-05-03T11:39:50.364Z,97957.60
2019-05-03T11:42:49.760Z,97954.19
2019-05-03T11:46:01.531Z,97949.06
2019-05-03T11:48:35.482Z,97958.06
2019-05-03T11:51:06.857Z,97957.84
2019-05-03T11:53:51.854Z,97950.55
2019-05-03T11:56:47.945Z,97960.71
2019-05-03T11:59:28.474Z,97962.01
2019-05-03T12:02:44.774Z,97956.95
2019-05-03T12:05:24.489Z,97962.01
2019-05-03T12:08:25.184Z,97958.37
2019-05-03T12:11:01.844Z,97955.89
2019-05-03T12:14:02.352Z,97965.69
2019-05-03T12:17:11.955Z,97952.66
2019-05-03T12:19:36.419Z,97941.79
2019-05-03T12:22:17.020Z,97929.70
2019-05-03T12:24:56.805Z,97939.58
2019-05-03T12:27:48.909Z,97929.97
2019-05-03T12:31:06.600Z,97924.64
2019-05-03T12:33:42.984Z,97930.38
2019-05-03T12:36:11.492Z,97943.33
2019-05-03T12:38:43.554Z,97945.30
2019-05-03T12:41:20.298Z,97936.70
2019-05-03T12:44:16.783Z,97933.05
2019-05-03T12:47:06.025Z,97931.64
2019-05-03T12:50:19.156Z,97937.38
2019-05-03T12:53:15.164Z,97937.16
2019-05-03T12:55:59.893Z,97941.64
2019-05-03T12:58:55.211Z,97953.62
2019-05-03T13:02:04.828Z,97956.88
2019-05-03T13:04:37.633Z,97959.70
2019-05-03T13:07:34.992Z,97964.70
2019-05-03T13:10:06.914Z,97962.38
2019-05-03T13:13:01.877Z,97966.86
2019-05-03T13:16:04.596Z,97957.27
2019-05-03T13:18:42.746Z,97964.22
2019-05-03T13:21:40.565Z,97959.72
2019-05-03T13:24:49.208Z,97962.73
2019-05-03T13:27:35.023Z,97956.10
2019-05-03T13:30:08.011Z,97961.05
2019-05-03T13:33:02.643Z,97964.54
2019-05-03T13:35:55.140Z,97961.20
2019-05-03T13:38:29.231Z,97953.52
2019-05-03T13:41:38.453Z,97959.89
2019-05-03T13:44:29.659Z,97955.23
2019-05-03T13:47:24.720Z,97953.27
2019-05-03T13:50:17.096Z,97944.26
2019-05-03T13:53:10.144Z,97950.05
2019-05-03T13:56:26.144Z,97940.25
2019-05-03T13:59:00.576Z,97931.23
2019-05-03T14:01:35.735Z,97934.83
2019-05-03T14:04:06.892Z,97932.09
2019-05-03T14:06:44.688Z,97944.37
2019-05-03T14:09:15.781Z,97909.44
2019-05-03T14:12:05.612Z,97928.13
2019-05-03T14:15:11.367Z,97924.91
2019-05-03T14:17:49.815Z,97916.94
2019-05-03T14:20:41.075Z,97918.57
2019-05-03T14:23:58.279Z,97918.63
2019-05-03T14:26:29.739Z,97927.58
2019-05-03T14:29:00.274Z,97925.80
2019-05-03T14:32:07.052Z,97934.91
2019-05-03T14:34:58.659Z,97918.03
2019-05-03T14:38:12.221Z,97930.00
2019-05-03T14:41:02.721Z,97916.89
2019-05-03T14:43:56.720Z,97918.67
2019-05-03T14:46:36.063Z,97928.67
2019-05-03T14:49:38.594Z,97920.87
2019-05-03T14:52:10.534Z,97922.03
2019-05-03T14:55:07.538Z,97924.61
2019-05-03T14:58:03.419Z,97917.08
2019-05-03T15:01:01.113Z,97918.30
2019-05-03T15:03:35.078Z,97914.53
2019-05-03T15:06:11.031Z,97919.58
2019-05-03T15:09:27.054Z,97926.53
2019-05-03T15:12:08.440Z,97938.49
2019-05-03T15:15:06.530Z,97950.80
2019-05-03T15:18:08.374Z,97953.09
2019-05-03T15:20:41.589Z,97962.38
2019-05-03T15:23:36.647Z,97968.52
2019-05-03T15:26:37.326Z,97992.38
2019-05-03T15:29:36.956Z,97985.07
2019-05-03T15:32:57.804Z,97986.75
2019-05-03T15:35:29.037Z,97979.77
2019-05-03T15:38:19.350Z,97987.07
2019-05-03T15:41:02.462Z,97988.72
2019-05-03T15:44:06.407Z,97978.89
2019-05-03T15:47:09.135Z,97975.22
2019-05-03T15:49:48.017Z,97988.10
2019-05-03T15:52:38.328Z,97978.59
2019-05-03T15:55:12.527Z,97984.52
2019-05-03T15:58:06.231Z,97990.19
2019-05-03T16:01:19.068Z,97996.77
2019-05-03T16:03:55.615Z,98003.95
2019-05-03T16:06:56.005Z,98010.30
2019-05-03T16:10:07.634Z,98008.89
2019-05-03T16:12:59.824Z,98014.26
2019-05-03T16:15:51.365Z,98011.70
2019-05-03T16:19:05.402Z,98016.14
2019-05-03T16:22:05.713Z,98012.44
2019-05-03T16:25:04.965Z,98015.34
2019-05-03T16:27:52.554Z,98024.73
2019-05-03T16:31:10.295Z,98033.47
2019-05-03T16:33:47.088Z,98023.86
2019-05-03T16:36:59.759Z,98033.95
2019-05-03T16:40:16.754Z,98036.50
2019-05-03T16:43:16.154Z,98041.94
2019-05-03T16:46:20.175Z,98042.19
2019-05-03T16:49:11.176Z,98055.38
2019-05-03T16:52:10.239Z,98059.80
2019-05-03T16:54:54.718Z,98065.59
2019-05-03T16:57:51.008Z,98075.11
2019-05-03T17:00:44.610Z,98082.00
2019-05-03T17:03:55.902Z,98088.17
2019-05-03T17:06:49.016Z,98093.28
2019-05-03T17:10:15.343Z,98112.69
2019-05-03T17:13:22.522Z,98121.12
2019-05-03T17:16:16.803Z,98139.94
2019-05-03T17:19:24.232Z,98152.86
2019-05-03T17:23:07.030Z,98169.06
2019-05-03T17:26:17.553Z,98183.33
2019-05-03T17:29:24.593Z,98196.53
2019-05-03T17:32:44.449Z,98204.00
2019-05-03T17:36:14.653Z,98216.48
2019-05-03T17:39:14.999Z,98208.48
2019-05-03T17:41:59.479Z,98225.91
2019-05-03T17:44:58.853Z,98234.83
2019-05-03T17:47:34.731Z,98231.84
2019-05-03T17:50:38.629Z,98224.76
2019-05-03T17:53:46.595Z,98222.22
2019-05-03T17:56:59.690Z,98222.22
2019-05-03T18:00:17.232Z,98223.54
2019-05-03T18:03:14.663Z,98219.59
2019-05-03T18:06:36.655Z,98213.59
2019-05-03T18:09:34.439Z,98206.44
2019-05-03T18:12:26.374Z,98227.16
2019-05-03T18:15:20.258Z,98227.16
2019-05-03T18:18:58.658Z,98216.81
2019-05-03T18:21:57.720Z,98214.77
2019-05-03T18:24:46.570Z,98226.32
2019-05-03T18:27:49.443Z,98234.19
2019-05-03T18:30:40.650Z,98220.83
2019-05-03T18:33:15.383Z,98220.02
2019-05-03T18:36:05.588Z,98236.40
2019-05-03T18:39:00.353Z,98237.96
2019-05-03T18:41:49.326Z,98235.64
2019-05-03T18:45:07.215Z,98235.17
2019-05-03T18:48:15.317Z,98238.88
2019-05-03T18:51:27.235Z,98240.80
2019-05-03T18:54:38.499Z,98240.80
2019-05-03T18:57:48.940Z,98253.09
2019-05-03T19:00:24.675Z,98247.96
2019-05-03T19:03:03.033Z,98244.49
2019-05-03T19:05:35.211Z,98260.24
2019-05-03T19:08:44.789Z,98260.24
2019-05-03T19:11:46.390Z,98250.95
2019-05-03T19:14:21.435Z,98238.53
2019-05-03T19:17:11.433Z,98242.36
2019-05-03T19:19:45.665Z,98242.36
2019-05-03T19:22:34.659Z,98246.53
2019-05-03T19:25:25.491Z,98257.88
2019-05-03T19:28:45.642Z,98257.88
2019-05-03T19:31:37.521Z,98245.00
2019-05-03T19:34:08.993Z,98255.27
2019-05-03T19:36:48.168Z,98269.94
2019-05-03T19:39:58.515Z,98271.83
2019-05-03T19:42:35.239Z,98264.80
2019-05-03T19:45:08.930Z,98262.30
2019-05-03T19:47:46.290Z,98271.84
2019-05-03T19:50:18.092Z,98275.16
2019-05-03T19:53:50.029Z,98288.67
2019-05-03T19:56:21.721Z,98288.67
2019-05-03T19:58:58.643Z,98298.55
2019-05-03T20:01:46.282Z,98301.53
2019-05-03T20:04:38.402Z,98301.53
2019-05-03T20:07:28.264Z,98301.53
2019-05-03T20:09:59.091Z,98309.79
2019-05-03T20:12:49.926Z,98315.04
2019-05-03T20:15:19.806Z,98319.09
2019-05-03T20:18:00.460Z,98326.73
2019-05-03T20:20:32.178Z,98319.55
2019-05-03T20:23:08.105Z,98326.96
2019-05-03T20:25:40.441Z,98333.76
2019-05-03T20:28:10.327Z,98333.76
2019-05-03T20:30:40.533Z,98344.72
2019-05-03T20:33:12.817Z,98347.22
2019-05-03T20:35:45.394Z,98347.22
2019-05-03T20:38:16.931Z,98342.21
2019-05-03T20:40:46.764Z,98339.13
2019-05-03T20:43:25.754Z,98313.83
2019-05-03T20:46:21.418Z,98313.83
2019-05-03T20:48:53.358Z,98325.39
2019-05-03T20:51:27.676Z,98336.22
2019-05-03T20:53:58.106Z,98358.55
2019-05-03T20:56:30.350Z,98331.55
2019-05-03T20:59:03.080Z,98331.55
2019-05-03T21:01:36.296Z,98361.13
2019-05-03T21:04:06.966Z,98361.13
2019-05-03T21:06:37.820Z,98364.95
2019-05-03T21:09:08.617Z,98357.66
2019-05-03T21:11:40.112Z,98355.28
2019-05-03T21:14:09.593Z,98361.11
2019-05-03T21:16:57.838Z,98356.08
2019-05-03T21:19:48.595Z,98362.88
2019-05-03T21:22:32.091Z,98379.20
2019-05-03T21:25:08.363Z,98379.20
2019-05-03T21:27:37.905Z,98374.06
2019-05-03T21:30:07.494Z,98378.94
2019-05-03T21:32:37.032Z,98370.35
2019-05-03T21:35:07.577Z,98370.35
2019-05-03T21:37:37.586Z,98382.16
2019-05-03T21:40:07.475Z,98376.91
2019-05-03T21:42:37.422Z,98391.11
2019-05-03T21:45:09.385Z,98396.50
2019-05-03T21:48:05.975Z,98415.59
2019-05-03T21:50:35.606Z,98415.59
2019-05-03T21:53:05.923Z,98407.05
2019-05-03T21:55:37.144Z,98407.05
2019-05-03T21:58:06.734Z,98401.80
2019-05-03T22:00:49.839Z,98410.48
2019-05-03T22:03:19.528Z,98413.95
2019-05-03T22:05:55.019Z,98409.06
2019-05-03T22:08:22.042Z,98423.38
2019-05-03T22:10:51.576Z,98419.20
2019-05-03T22:13:21.987Z,98410.63
2019-05-03T22:16:04.913Z,98410.70
2019-05-03T22:18:35.172Z,98413.67
2019-05-03T22:21:22.637Z,98414.98
2019-05-03T22:24:25.563Z,98415.80
2019-05-03T22:26:58.569Z,98419.38
2019-05-03T22:29:28.628Z,98419.38
2019-05-03T22:32:01.682Z,98432.45
2019-05-03T22:34:31.518Z,98440.22
2019-05-03T22:37:01.420Z,98450.56
2019-05-03T22:39:30.689Z,98450.45
2019-05-03T22:42:00.900Z,98455.20
2019-05-03T22:44:35.466Z,98455.80
2019-05-03T22:47:07.852Z,98471.04
2019-05-03T22:49:37.906Z,98471.04
2019-05-03T22:52:07.384Z,98473.77
2019-05-03T22:54:40.620Z,98479.01
2019-05-03T22:57:10.138Z,98479.01
2019-05-03T22:59:41.892Z,98473.05
2019-05-03T23:02:11.332Z,98474.58
2019-05-03T23:04:41.389Z,98475.63
2019-05-03T23:07:11.061Z,98468.43
2019-05-03T23:09:40.631Z,98468.43
2019-05-03T23:12:10.113Z,98476.25
2019-05-03T23:14:40.147Z,98480.98
2019-05-03T23:17:11.209Z,98484.02
2019-05-03T23:19:44.867Z,98488.84
2019-05-03T23:22:18.674Z,98488.70
2019-05-03T23:24:50.512Z,98486.42
2019-05-03T23:27:21.757Z,98488.08
2019-05-03T23:29:51.063Z,98488.39
2019-05-03T23:32:20.495Z,98514.13
2019-05-03T23:34:49.788Z,98510.76
2019-05-03T23:37:18.988Z,98517.46
2019-05-03T23:39:48.306Z,98517.46
2019-05-03T23:42:17.392Z,98530.20
2019-05-03T23:44:47.352Z,98530.20
2019-05-03T23:47:34.367Z,98542.84
2019-05-03T23:50:05.232Z,98549.84
2019-05-03T23:52:38.660Z,98549.84
2019-05-03T23:55:30.453Z,98556.55
2019-05-03T23:58:00.857Z,98560.69
